createdAt,value
2018-05-24T00:05:48.656Z,9.3
2018-05-24T00:09:49.128Z,8.41
2018-05-24T00:15:49.741Z,8.87
2018-05-24T00:21:50.721Z,8.16
2018-05-24T00:25:51.217Z,6.81
2018-05-24T00:31:51.717Z,7.3
2018-05-24T00:35:52.299Z,7.05
2018-05-24T00:37:52.835Z,7.78
2018-05-24T00:41:53.532Z,7.94
2018-05-24T00:47:54.482Z,7.48
2018-05-24T00:51:54.964Z,7.84
2018-05-24T00:57:55.493Z,8.39
2018-05-24T01:01:55.951Z,7.32
2018-05-24T01:03:56.756Z,6.77
2018-05-24T01:07:57.321Z,9.3
2018-05-24T01:13:57.797Z,9.37
2018-05-24T01:17:58.384Z,9.32
2018-05-24T01:23:58.870Z,9.5
2018-05-24T01:29:59.396Z,6.27
2018-05-24T01:33:59.888Z,8.49
2018-05-24T01:40:00.504Z,9.63
2018-05-24T01:44:01.086Z,7.9
2018-05-24T01:50:01.623Z,8.08
2018-05-24T01:56:02.218Z,7.41
2018-05-24T02:00:03.514Z,8.35
2018-05-24T02:06:03.301Z,8.65
2018-05-24T02:10:03.900Z,9.51
2018-05-24T02:16:04.433Z,8
2018-05-24T02:22:04.980Z,8.55
2018-05-24T02:26:05.442Z,7.97
2018-05-24T02:32:05.983Z,7.19
2018-05-24T02:36:06.711Z,8.4
2018-05-24T02:38:06.999Z,7.66
2018-05-24T02:42:07.544Z,8.51
2018-05-24T02:48:08.097Z,8.52
2018-05-24T02:52:08.921Z,6.56
2018-05-24T02:58:09.557Z,8.53
2018-05-24T03:02:10.118Z,7.55
2018-05-24T03:04:10.624Z,7.84
2018-05-24T03:08:11.178Z,7.51
2018-05-24T03:14:11.752Z,6.55
2018-05-24T03:18:12.297Z,6.6
2018-05-24T03:24:12.926Z,6.72
2018-05-24T03:30:13.936Z,8.94
2018-05-24T03:34:14.477Z,10.21
2018-05-24T03:40:14.980Z,8.33
2018-05-24T03:44:15.473Z,9.4
2018-05-24T03:50:16.032Z,6.83
2018-05-24T03:56:16.789Z,8.1
2018-05-24T04:00:17.694Z,8.45
2018-05-24T04:06:18.298Z,8.14
2018-05-24T04:10:18.878Z,8.58
2018-05-24T04:16:19.299Z,11.1
2018-05-24T04:22:19.843Z,6.84
2018-05-24T04:26:20.401Z,7.95
2018-05-24T04:32:20.941Z,9.19
2018-05-24T04:36:21.574Z,8.93
2018-05-24T04:38:22.007Z,10.95
2018-05-24T04:42:22.497Z,10.63
2018-05-24T04:48:23.111Z,11.59
2018-05-24T04:52:23.669Z,11.5
2018-05-24T04:58:24.241Z,11.98
2018-05-24T05:02:24.775Z,14.05
2018-05-24T05:04:25.186Z,11.6
2018-05-24T05:08:25.809Z,12.64
2018-05-24T05:14:26.377Z,10.67
2018-05-24T05:18:27.013Z,11.22
2018-05-24T05:24:27.532Z,11.17
2018-05-24T05:30:28.202Z,11.87
2018-05-24T05:34:28.759Z,13.25
2018-05-24T05:40:29.286Z,13.35
2018-05-24T05:44:29.729Z,13.03
2018-05-24T05:50:30.313Z,16.58
2018-05-24T05:56:30.826Z,13.42
2018-05-24T06:00:32.055Z,15.74
2018-05-24T06:06:32.553Z,12.99
2018-05-24T06:10:33.033Z,12.97
2018-05-24T06:16:33.631Z,11.52
2018-05-24T06:22:34.137Z,11.65
2018-05-24T06:26:34.629Z,15.27
2018-05-24T06:32:35.176Z,13.51
2018-05-24T06:36:35.703Z,18.4
2018-05-24T06:38:36.224Z,11.31
2018-05-24T06:42:36.800Z,13.39
2018-05-24T06:48:37.302Z,13.61
2018-05-24T06:52:37.934Z,16.46
2018-05-24T06:58:38.467Z,13.57
2018-05-24T07:02:39.012Z,15.79
2018-05-24T07:04:39.474Z,12.47
2018-05-24T07:08:39.999Z,15.21
2018-05-24T07:14:40.515Z,14.61
2018-05-24T07:18:41.131Z,15.03
2018-05-24T07:24:41.604Z,17.86
2018-05-24T07:30:42.022Z,23.79
2018-05-24T07:34:42.567Z,29.47
2018-05-24T07:40:42.935Z,16.75
2018-05-24T07:44:43.445Z,18.41
2018-05-24T07:50:44.021Z,15.23
2018-05-24T07:56:44.523Z,11.8
2018-05-24T08:00:45.104Z,12.99
2018-05-24T08:06:45.795Z,13.02
2018-05-24T08:10:46.247Z,13.13
2018-05-24T08:12:47.261Z,12.82
2018-05-24T08:16:48.017Z,12.79
2018-05-24T08:22:48.553Z,13.45
2018-05-24T08:26:49.101Z,13.37
2018-05-24T08:32:49.644Z,8.47
2018-05-24T08:36:50.176Z,12.45
2018-05-24T08:38:50.589Z,13.21
2018-05-24T08:42:51.192Z,13.35
2018-05-24T08:48:51.753Z,13.02
2018-05-24T08:52:52.290Z,13.92
2018-05-24T08:58:52.836Z,12.63
2018-05-24T09:02:53.249Z,16.55
2018-05-24T09:04:53.693Z,10.61
2018-05-24T09:04:53.706Z,10.61
2018-05-24T09:08:54.262Z,11.45
2018-05-24T09:14:54.939Z,13.55
2018-05-24T09:18:55.388Z,13.23
2018-05-24T09:24:55.972Z,14.68
2018-05-24T09:30:56.520Z,13.57
2018-05-24T09:34:57.073Z,16.79
2018-05-24T09:40:57.522Z,14.31
2018-05-24T09:44:58.137Z,9.9
2018-05-24T09:50:58.506Z,11.95
2018-05-24T09:56:59.162Z,11.35
2018-05-24T10:00:59.514Z,11.01
2018-05-24T10:07:00.071Z,11.04
2018-05-24T10:11:00.639Z,12.59
2018-05-24T10:13:01.154Z,10.33
2018-05-24T10:22:02.320Z,11.59
2018-05-24T10:28:02.764Z,9.67
2018-05-24T10:32:03.525Z,11.21
2018-05-24T10:38:04.006Z,13.33
2018-05-24T10:44:04.606Z,11.35
2018-05-24T10:48:05.113Z,11.43
2018-05-24T10:54:05.729Z,10.33
2018-05-24T10:58:06.169Z,11.3
2018-05-24T11:00:07.044Z,13.35
2018-05-24T11:04:07.586Z,11.91
2018-05-24T11:10:08.107Z,10.36
2018-05-24T11:14:08.678Z,14.54
2018-05-24T11:20:09.391Z,10.64
2018-05-24T11:30:13.001Z,12.34
2018-05-24T11:30:13.129Z,12.43
2018-05-24T11:30:13.232Z,12.91
2018-05-24T11:36:13.789Z,10.84
2018-05-24T11:40:14.229Z,14.07
2018-05-24T11:46:14.853Z,11.21
2018-05-24T11:50:15.535Z,11.35
2018-05-24T11:52:16.001Z,9.33
2018-05-24T11:56:16.665Z,10.85
2018-05-24T12:02:17.242Z,11.96
2018-05-24T12:06:17.859Z,10.82
2018-05-24T12:12:18.330Z,11.31
2018-05-24T12:18:18.952Z,11.64
2018-05-24T12:22:19.571Z,10.77
2018-05-24T12:28:19.953Z,9.02
2018-05-24T12:32:20.692Z,11.29
2018-05-24T12:38:21.088Z,17.4
2018-05-24T12:44:21.665Z,12.12
2018-05-24T12:48:22.423Z,11.79
2018-05-24T12:54:22.994Z,13.53
2018-05-24T12:58:23.622Z,13.73
2018-05-24T13:00:24.769Z,13.89
2018-05-24T13:04:24.934Z,12.79
2018-05-24T13:10:25.612Z,15.12
2018-05-24T13:14:25.930Z,12.31
2018-05-24T13:20:26.673Z,12.24
2018-05-24T13:24:27.328Z,11.78
2018-05-24T13:26:27.694Z,11.55
2018-05-24T13:30:28.799Z,12.94
2018-05-24T13:36:29.356Z,15.7
2018-05-24T13:40:29.912Z,16.53
2018-05-24T13:46:30.450Z,12.87
2018-05-24T13:50:31.006Z,10.86
2018-05-24T13:52:31.518Z,10.94
2018-05-24T13:56:32.072Z,10.68
2018-05-24T14:02:32.611Z,11.95
2018-05-24T14:06:33.058Z,12.7
2018-05-24T14:12:33.646Z,12.89
2018-05-24T14:18:34.213Z,11.48
2018-05-24T14:22:34.784Z,11.78
2018-05-24T14:28:35.335Z,10.12
2018-05-24T14:32:35.981Z,10.43
2018-05-24T14:38:39.586Z,12.45
2018-05-24T14:44:40.095Z,10.96
2018-05-24T14:48:40.704Z,11.87
2018-05-24T14:54:41.261Z,10.43
2018-05-24T14:58:41.810Z,10.97
2018-05-24T15:00:42.497Z,10.51
2018-05-24T15:04:43.065Z,10.62
2018-05-24T15:10:43.658Z,11.28
